Time;durP1;ratioP1;P1;durP2;ratioP2;P2;SDS_P1;SDS_P2;PMS_P1;PMS_P2;Temp;Humidity;BMP_temperature;BMP_pressure;BME280_temperature;BME280_humidity;BME280_pressure;Samples;Min_cycle;Max_cycle;Signal;HPM_P1;HPM_P2
2023/07/30 00:02:17;;;;;;;12.05;4.43;;;16.50;99.90;;;;;;5021232;28;20046;-93
2023/07/30 00:04:44;;;;;;;19.58;4.90;;;16.50;99.90;;;;;;5017074;28;20085;-91
2023/07/30 00:07:10;;;;;;;14.57;4.97;;;16.40;99.90;;;;;;5026920;28;20599;-92
2023/07/30 00:09:36;;;;;;;14.07;4.97;;;16.40;99.90;;;;;;4988090;28;20064;-91
2023/07/30 00:12:02;;;;;;;14.10;4.63;;;16.40;99.90;;;;;;4993674;28;20925;-92
2023/07/30 00:14:28;;;;;;;18.20;5.47;;;16.40;99.90;;;;;;5042345;28;20032;-92
2023/07/30 00:16:54;;;;;;;16.25;4.82;;;16.40;99.90;;;;;;5000224;28;20037;-91
2023/07/30 00:19:19;;;;;;;15.27;4.82;;;16.40;99.90;;;;;;4985531;28;20033;-91
2023/07/30 00:21:46;;;;;;;16.27;4.82;;;17.30;99.90;;;;;;4993011;28;20034;-92
2023/07/30 00:24:15;;;;;;;14.20;4.70;;;16.40;99.90;;;;;;5004102;28;20114;-91
2023/07/30 00:26:41;;;;;;;15.68;5.05;;;16.40;99.90;;;;;;5003522;28;20129;-90
2023/07/30 00:29:07;;;;;;;18.38;5.85;;;16.30;99.90;;;;;;5007345;28;20078;-91
2023/07/30 00:31:32;;;;;;;15.82;5.13;;;16.30;99.90;;;;;;5001031;28;20135;-91
2023/07/30 00:33:58;;;;;;;18.80;6.05;;;15.50;99.90;;;;;;5028530;28;20037;-91
2023/07/30 00:36:24;;;;;;;15.80;5.13;;;16.30;99.90;;;;;;5002134;28;20037;-92
2023/07/30 00:38:49;;;;;;;15.57;5.07;;;16.30;99.90;;;;;;4983648;28;20049;-91
2023/07/30 00:41:15;;;;;;;16.58;4.80;;;16.30;99.90;;;;;;5004313;28;20044;-92
2023/07/30 00:43:41;;;;;;;17.15;5.22;;;16.20;99.90;;;;;;5027481;28;20490;-90
2023/07/30 00:46:07;;;;;;;14.73;5.18;;;16.20;99.90;;;;;;4994118;28;20129;-90
2023/07/30 00:48:32;;;;;;;19.77;5.70;;;16.20;99.90;;;;;;5008402;28;20036;-90
2023/07/30 00:50:59;;;;;;;19.20;5.35;;;16.20;99.90;;;;;;4998038;28;20626;-90
2023/07/30 00:53:27;;;;;;;16.30;5.65;;;16.20;99.90;;;;;;5006130;28;20390;-91
2023/07/30 00:55:53;;;;;;;17.08;5.10;;;16.30;99.90;;;;;;5027253;28;20037;-90
2023/07/30 00:58:21;;;;;;;16.65;5.30;;;16.20;99.90;;;;;;4988075;28;20037;-91
2023/07/30 01:00:47;;;;;;;16.92;5.30;;;16.10;99.90;;;;;;5022300;28;20043;-90
2023/07/30 01:03:13;;;;;;;18.80;5.35;;;16.20;99.90;;;;;;5018272;28;20434;-91
2023/07/30 01:05:39;;;;;;;17.05;5.22;;;16.10;99.90;;;;;;5005829;28;20067;-90
2023/07/30 01:08:04;;;;;;;16.58;4.95;;;16.10;99.90;;;;;;5002867;28;20061;-90
2023/07/30 01:10:32;;;;;;;17.60;5.30;;;16.10;99.90;;;;;;5010814;28;20191;-90
2023/07/30 01:13:01;;;;;;;16.00;5.22;;;16.10;99.90;;;;;;4997676;28;20035;-90
2023/07/30 01:15:28;;;;;;;16.95;5.22;;;16.10;99.90;;;;;;5019914;28;20465;-92
2023/07/30 01:17:54;;;;;;;14.50;4.55;;;16.10;99.90;;;;;;5003611;28;20084;-91
2023/07/30 01:20:21;;;;;;;12.40;4.45;;;16.10;99.90;;;;;;5025764;28;20505;-91
2023/07/30 01:22:47;;;;;;;13.80;4.70;;;16.10;99.90;;;;;;5023732;28;20405;-91
2023/07/30 01:25:17;;;;;;;14.88;4.80;;;16.10;99.90;;;;;;5018137;28;20041;-90
2023/07/30 01:27:51;;;;;;;16.67;5.75;;;16.10;99.90;;;;;;5003577;28;20052;-91
2023/07/30 01:30:22;;;;;;;15.57;4.90;;;16.10;99.90;;;;;;5029604;28;20064;-89
2023/07/30 01:32:51;;;;;;;16.80;4.70;;;16.10;99.90;;;;;;5025768;28;20090;-91
2023/07/30 01:35:23;;;;;;;16.27;4.78;;;16.10;99.90;;;;;;5017778;28;20116;-93
2023/07/30 01:37:50;;;;;;;17.23;5.22;;;16.20;99.90;;;;;;5037432;28;20044;-90
2023/07/30 01:40:16;;;;;;;16.27;5.20;;;16.20;99.90;;;;;;5021463;28;20040;-90
2023/07/30 01:42:42;;;;;;;14.82;4.95;;;16.20;99.90;;;;;;4991137;28;20037;-92
2023/07/30 01:45:07;;;;;;;17.67;5.13;;;16.20;99.90;;;;;;5020644;28;20516;-91
2023/07/30 01:47:33;;;;;;;17.50;5.40;;;16.20;99.90;;;;;;4989216;28;20079;-92
2023/07/30 01:49:59;;;;;;;18.27;4.80;;;16.20;99.90;;;;;;5017162;28;20048;-93
2023/07/30 01:52:25;;;;;;;20.15;5.93;;;16.20;99.90;;;;;;5027374;28;20037;-91
2023/07/30 01:54:51;;;;;;;20.27;5.85;;;16.80;99.90;;;;;;5021170;28;20071;-92
2023/07/30 01:57:17;;;;;;;16.67;5.10;;;16.20;99.90;;;;;;4992183;28;20132;-91
2023/07/30 01:59:42;;;;;;;19.17;5.75;;;16.30;99.90;;;;;;5024149;28;20041;-89
2023/07/30 02:02:08;;;;;;;16.73;5.00;;;16.30;99.90;;;;;;4999404;28;20119;-92
2023/07/30 02:04:34;;;;;;;18.73;4.78;;;16.30;99.90;;;;;;4987381;28;20072;-90
2023/07/30 02:07:00;;;;;;;16.33;4.90;;;16.30;99.90;;;;;;5001692;28;20045;-90
2023/07/30 02:09:25;;;;;;;18.02;5.65;;;16.30;99.90;;;;;;5009687;28;20033;-94
2023/07/30 02:11:51;;;;;;;16.52;5.03;;;16.30;99.90;;;;;;4999462;28;20052;-91
2023/07/30 02:14:18;;;;;;;19.63;5.10;;;16.30;99.90;;;;;;4989849;28;20492;-92
2023/07/30 02:16:44;;;;;;;17.67;5.05;;;16.40;99.90;;;;;;5001267;28;20041;-92
2023/07/30 02:19:09;;;;;;;19.33;5.32;;;16.30;99.90;;;;;;5024280;28;20033;-90
2023/07/30 02:21:38;;;;;;;19.80;5.20;;;16.30;99.90;;;;;;5000746;28;21357;-89
2023/07/30 02:24:09;;;;;;;18.17;6.03;;;16.40;99.90;;;;;;5027872;28;20052;-89
2023/07/30 02:26:35;;;;;;;20.23;5.63;;;16.30;99.90;;;;;;5007287;28;20041;-90
2023/07/30 02:29:01;;;;;;;16.75;4.95;;;16.30;99.90;;;;;;5004370;28;20033;-91
2023/07/30 02:31:27;;;;;;;20.65;5.13;;;16.40;99.90;;;;;;4989746;28;20061;-91
2023/07/30 02:33:53;;;;;;;18.88;5.28;;;16.40;99.90;;;;;;5024651;28;20055;-90
2023/07/30 02:36:18;;;;;;;19.60;4.95;;;16.40;99.90;;;;;;5002806;28;20502;-92
2023/07/30 02:38:44;;;;;;;19.33;5.22;;;16.40;99.90;;;;;;4997036;28;20044;-91
2023/07/30 02:41:10;;;;;;;20.52;5.28;;;16.40;99.90;;;;;;5004189;28;20664;-90
2023/07/30 02:43:35;;;;;;;19.45;4.93;;;16.40;99.90;;;;;;5022585;28;20071;-90
2023/07/30 02:46:01;;;;;;;16.92;5.03;;;16.40;99.90;;;;;;4991033;28;20036;-90
2023/07/30 02:48:27;;;;;;;21.33;5.22;;;16.40;99.90;;;;;;4990183;28;20516;-92
2023/07/30 02:50:52;;;;;;;21.23;5.43;;;16.30;99.90;;;;;;4983473;28;20058;-91
2023/07/30 02:53:18;;;;;;;19.30;4.55;;;16.30;99.90;;;;;;5010274;28;20028;-91
2023/07/30 02:55:44;;;;;;;19.85;4.55;;;16.30;99.90;;;;;;4990227;28;20180;-90
2023/07/30 02:58:09;;;;;;;18.02;4.57;;;16.30;99.90;;;;;;5005403;28;20036;-90
2023/07/30 03:00:36;;;;;;;20.90;5.15;;;16.30;99.90;;;;;;5036914;28;21203;-90
2023/07/30 03:03:02;;;;;;;17.20;5.25;;;16.30;99.90;;;;;;5012710;28;20072;-89
2023/07/30 03:05:28;;;;;;;16.75;5.22;;;16.20;99.90;;;;;;4986154;28;20065;-92
2023/07/30 03:07:54;;;;;;;20.45;4.78;;;16.20;99.90;;;;;;5007651;28;20059;-90
2023/07/30 03:10:19;;;;;;;18.70;4.95;;;16.20;99.90;;;;;;5029646;28;20049;-92
2023/07/30 03:12:45;;;;;;;19.52;5.22;;;16.20;99.90;;;;;;5007855;28;20704;-92
2023/07/30 03:15:11;;;;;;;20.27;5.32;;;16.20;99.90;;;;;;5018552;28;20041;-92
2023/07/30 03:17:36;;;;;;;21.13;5.18;;;16.10;99.90;;;;;;4990381;28;20512;-93
2023/07/30 03:20:04;;;;;;;18.13;5.25;;;16.10;99.90;;;;;;5005689;28;20538;-92
2023/07/30 03:22:29;;;;;;;18.77;5.13;;;16.10;99.90;;;;;;5036752;28;20047;-93
2023/07/30 03:24:55;;;;;;;19.10;5.18;;;16.10;99.90;;;;;;4992164;28;20044;-93
2023/07/30 03:27:21;;;;;;;28.63;6.20;;;16.00;99.90;;;;;;5012517;28;20360;-93
2023/07/30 03:29:46;;;;;;;21.27;5.38;;;16.00;99.90;;;;;;5009237;28;20093;-91
2023/07/30 03:32:12;;;;;;;21.40;5.57;;;16.00;99.90;;;;;;4988491;28;20044;-90
2023/07/30 03:34:38;;;;;;;18.75;5.00;;;16.00;99.90;;;;;;5023957;28;20040;-92
2023/07/30 03:37:04;;;;;;;19.88;5.25;;;16.00;99.90;;;;;;4988431;28;20128;-94
2023/07/30 03:39:30;;;;;;;20.38;5.25;;;16.00;99.90;;;;;;4994578;28;20051;-89
2023/07/30 03:41:55;;;;;;;19.30;5.07;;;15.90;99.90;;;;;;5027687;28;20436;-90
2023/07/30 03:44:21;;;;;;;20.15;5.57;;;15.90;99.90;;;;;;4988655;28;20040;-90
2023/07/30 03:46:47;;;;;;;15.82;5.05;;;15.90;99.90;;;;;;4988164;28;20034;-92
2023/07/30 03:49:12;;;;;;;16.95;5.25;;;15.90;99.90;;;;;;4994928;28;20564;-91
2023/07/30 03:51:38;;;;;;;21.80;5.03;;;15.90;99.90;;;;;;5035230;28;20045;-92
2023/07/30 03:54:04;;;;;;;18.90;5.07;;;15.90;99.90;;;;;;5009613;28;20653;-90
2023/07/30 03:56:30;;;;;;;15.48;5.47;;;15.90;99.90;;;;;;4991338;28;20485;-91
2023/07/30 03:58:56;;;;;;;18.13;5.00;;;15.70;99.90;;;;;;4996416;28;20245;-91
2023/07/30 04:01:22;;;;;;;15.98;4.70;;;15.80;99.90;;;;;;5025687;28;20520;-92
2023/07/30 04:03:47;;;;;;;20.10;4.97;;;15.80;99.90;;;;;;5021125;28;20040;-93
2023/07/30 04:06:13;;;;;;;18.20;5.03;;;15.80;99.90;;;;;;5008335;28;20084;-90
2023/07/30 04:08:39;;;;;;;22.02;5.30;;;15.80;99.90;;;;;;4988877;28;20052;-92
2023/07/30 04:11:05;;;;;;;20.15;5.20;;;15.80;99.90;;;;;;4994764;28;20040;-93
2023/07/30 04:13:31;;;;;;;20.17;5.68;;;15.80;99.90;;;;;;5009897;28;20039;-92
2023/07/30 04:15:56;;;;;;;19.77;5.07;;;15.80;99.90;;;;;;5023266;28;20291;-91
2023/07/30 04:18:22;;;;;;;18.38;5.22;;;15.70;99.90;;;;;;5003068;28;20457;-91
2023/07/30 04:20:48;;;;;;;17.20;4.80;;;15.80;99.90;;;;;;5029327;28;20452;-91
2023/07/30 04:23:14;;;;;;;19.00;5.43;;;15.80;99.90;;;;;;4988164;28;20036;-92
2023/07/30 04:25:40;;;;;;;18.83;4.93;;;15.80;99.90;;;;;;4988602;28;20159;-92
2023/07/30 04:28:05;;;;;;;19.33;4.97;;;15.80;99.90;;;;;;5010959;28;20036;-92
2023/07/30 04:30:32;;;;;;;16.13;4.70;;;15.80;99.90;;;;;;5006738;28;20040;-91
2023/07/30 04:32:58;;;;;;;21.48;4.85;;;15.80;99.90;;;;;;5018503;28;20041;-92
2023/07/30 04:35:23;;;;;;;18.52;4.72;;;15.80;99.90;;;;;;5003967;28;20051;-91
2023/07/30 04:37:49;;;;;;;17.08;4.50;;;15.80;99.90;;;;;;5012158;28;20123;-91
2023/07/30 04:40:15;;;;;;;17.10;4.50;;;15.80;99.90;;;;;;5023435;28;20068;-92
2023/07/30 04:42:41;;;;;;;18.02;4.65;;;15.90;99.90;;;;;;4990260;28;20112;-91
2023/07/30 04:45:07;;;;;;;18.73;4.60;;;15.90;99.90;;;;;;5001247;28;20473;-92
2023/07/30 04:47:33;;;;;;;19.45;4.72;;;15.90;99.90;;;;;;4993179;28;20044;-91
2023/07/30 04:49:58;;;;;;;18.42;4.60;;;16.00;99.90;;;;;;5007929;28;20045;-91
2023/07/30 04:52:24;;;;;;;21.15;4.85;;;16.00;99.90;;;;;;4991725;28;20085;-92
2023/07/30 04:54:50;;;;;;;14.68;4.45;;;16.00;99.90;;;;;;5006204;28;20044;-90
2023/07/30 04:57:15;;;;;;;17.60;4.55;;;16.10;99.90;;;;;;5007661;28;20040;-90
2023/07/30 04:59:41;;;;;;;18.83;4.65;;;16.10;99.90;;;;;;4989898;28;20025;-90
2023/07/30 05:02:07;;;;;;;15.50;4.00;;;16.20;99.90;;;;;;5002419;28;20032;-89
2023/07/30 05:04:33;;;;;;;13.70;4.30;;;16.20;99.90;;;;;;5000726;28;20063;-91
2023/07/30 05:06:58;;;;;;;18.98;4.75;;;16.30;99.90;;;;;;4989192;28;20528;-89
2023/07/30 05:09:24;;;;;;;16.95;4.30;;;16.20;99.90;;;;;;5000032;28;20068;-90
2023/07/30 05:11:50;;;;;;;20.77;4.88;;;16.20;99.90;;;;;;5004676;28;20045;-90
2023/07/30 05:14:16;;;;;;;18.85;4.50;;;16.20;99.90;;;;;;4994553;28;20029;-90
2023/07/30 05:16:41;;;;;;;16.67;4.25;;;16.20;99.90;;;;;;5016983;28;20053;-92
2023/07/30 05:19:08;;;;;;;15.85;4.45;;;16.30;99.90;;;;;;5035776;28;20033;-92
2023/07/30 05:21:33;;;;;;;16.95;3.95;;;16.30;99.90;;;;;;4987904;28;20067;-89
2023/07/30 05:23:59;;;;;;;16.15;3.92;;;16.40;99.90;;;;;;5010582;28;20091;-91
2023/07/30 05:26:25;;;;;;;15.98;4.00;;;16.40;99.90;;;;;;5002398;28;20465;-90
2023/07/30 05:28:50;;;;;;;13.43;3.95;;;16.40;99.90;;;;;;4984204;28;20052;-91
2023/07/30 05:31:16;;;;;;;14.93;4.20;;;16.50;99.90;;;;;;5035448;28;20489;-90
2023/07/30 05:33:42;;;;;;;17.08;4.18;;;16.50;99.90;;;;;;5007665;28;20056;-91
2023/07/30 05:36:08;;;;;;;15.57;3.90;;;16.50;99.90;;;;;;5019525;28;20044;-91
2023/07/30 05:38:33;;;;;;;15.38;4.20;;;16.50;99.90;;;;;;5006187;28;20037;-91
2023/07/30 05:40:59;;;;;;;15.30;4.15;;;16.50;99.90;;;;;;5006684;28;20059;-92
2023/07/30 05:43:25;;;;;;;14.88;3.92;;;16.50;99.90;;;;;;5004280;28;20037;-90
2023/07/30 05:45:50;;;;;;;16.42;3.90;;;16.60;99.90;;;;;;4991390;28;20597;-90
2023/07/30 05:48:16;;;;;;;13.18;3.50;;;16.60;99.90;;;;;;4988971;28;20041;-91
2023/07/30 05:50:42;;;;;;;13.65;3.55;;;16.60;99.90;;;;;;5018484;28;20110;-90
2023/07/30 05:53:07;;;;;;;15.90;3.90;;;16.70;99.90;;;;;;4990278;28;20781;-91
2023/07/30 05:55:33;;;;;;;18.30;4.13;;;16.70;99.90;;;;;;4979417;28;20123;-91
2023/07/30 05:57:59;;;;;;;19.17;5.10;;;16.70;99.90;;;;;;4993030;28;20176;-92
2023/07/30 06:00:24;;;;;;;15.82;4.30;;;16.80;99.90;;;;;;5001718;28;20041;-90
2023/07/30 06:02:50;;;;;;;14.70;3.63;;;16.80;99.90;;;;;;5011799;28;20048;-93
2023/07/30 06:05:16;;;;;;;18.15;4.05;;;16.80;99.90;;;;;;4988644;28;20493;-91
2023/07/30 06:07:41;;;;;;;18.88;4.05;;;16.80;99.90;;;;;;4991888;28;20072;-90
2023/07/30 06:10:07;;;;;;;16.48;4.30;;;16.80;99.90;;;;;;5005846;28;20041;-92
2023/07/30 06:12:33;;;;;;;17.42;3.72;;;16.80;99.90;;;;;;5023561;28;20037;-91
2023/07/30 06:14:59;;;;;;;16.23;4.22;;;16.90;99.90;;;;;;5003821;28;20033;-91
2023/07/30 06:17:25;;;;;;;16.38;4.22;;;16.90;99.90;;;;;;5036985;28;20039;-93
2023/07/30 06:19:50;;;;;;;16.05;4.00;;;17.00;99.90;;;;;;5000907;28;20040;-91
2023/07/30 06:22:16;;;;;;;15.18;4.10;;;17.00;99.90;;;;;;4992241;28;20030;-92
2023/07/30 06:24:42;;;;;;;17.58;4.10;;;17.00;99.90;;;;;;5007300;28;20032;-93
2023/07/30 06:27:09;;;;;;;16.42;3.80;;;17.00;99.90;;;;;;5000387;28;20548;-89
2023/07/30 06:29:35;;;;;;;15.75;4.28;;;17.00;99.90;;;;;;5004463;28;20037;-91
2023/07/30 06:32:01;;;;;;;13.60;3.70;;;17.00;99.90;;;;;;5021091;28;20041;-89
2023/07/30 06:34:27;;;;;;;17.73;4.85;;;17.00;99.90;;;;;;5013942;28;20283;-91
2023/07/30 06:36:53;;;;;;;11.32;4.03;;;17.00;99.90;;;;;;4989622;28;20093;-91
2023/07/30 06:39:18;;;;;;;14.00;3.63;;;17.00;99.90;;;;;;4998326;28;20072;-90
2023/07/30 06:41:44;;;;;;;15.43;3.90;;;17.10;99.90;;;;;;5011405;28;20045;-90
2023/07/30 06:44:10;;;;;;;16.38;4.10;;;17.10;99.90;;;;;;5002106;28;20464;-91
2023/07/30 06:46:35;;;;;;;19.55;4.13;;;17.20;99.90;;;;;;5001311;28;20032;-91
2023/07/30 06:49:01;;;;;;;15.27;4.25;;;17.20;99.90;;;;;;5001379;28;20540;-93
2023/07/30 06:51:27;;;;;;;16.83;3.85;;;16.70;99.90;;;;;;5035235;28;20627;-90
2023/07/30 06:53:53;;;;;;;17.33;3.70;;;17.40;99.90;;;;;;5002918;28;20120;-89
2023/07/30 06:56:19;;;;;;;15.20;4.22;;;17.40;99.90;;;;;;5008842;28;20033;-90
2023/07/30 06:58:44;;;;;;;15.57;3.53;;;17.50;99.90;;;;;;4974318;28;20068;-89
2023/07/30 07:01:10;;;;;;;16.25;4.25;;;17.50;99.90;;;;;;5016804;28;20051;-92
2023/07/30 07:03:36;;;;;;;14.95;3.78;;;17.50;99.90;;;;;;5008758;28;20048;-90
2023/07/30 07:06:01;;;;;;;15.10;4.50;;;17.50;99.90;;;;;;5005932;28;20452;-90
2023/07/30 07:08:27;;;;;;;15.73;4.00;;;17.50;99.90;;;;;;5027265;28;20767;-90
2023/07/30 07:10:53;;;;;;;13.15;4.03;;;17.60;99.90;;;;;;5031909;28;20042;-91
2023/07/30 07:13:19;;;;;;;18.92;3.97;;;17.70;99.90;;;;;;5001195;28;20049;-92
2023/07/30 07:15:45;;;;;;;13.40;3.97;;;17.90;99.90;;;;;;4976403;28;20124;-91
2023/07/30 07:18:13;;;;;;;10.63;3.28;;;17.90;99.90;;;;;;5014074;28;20580;-90
2023/07/30 07:20:39;;;;;;;13.20;3.65;;;18.00;99.90;;;;;;5013241;28;20044;-90
2023/07/30 07:23:05;;;;;;;13.60;3.70;;;18.00;99.90;;;;;;5017628;28;20639;-93
2023/07/30 07:25:30;;;;;;;17.48;4.07;;;18.10;99.90;;;;;;4994863;28;20200;-91
2023/07/30 07:27:56;;;;;;;16.58;3.92;;;18.10;99.90;;;;;;4980798;28;20042;-91
2023/07/30 07:30:22;;;;;;;16.17;4.00;;;18.10;99.90;;;;;;4983418;28;20046;-91
2023/07/30 07:32:50;;;;;;;12.35;3.15;;;18.00;99.90;;;;;;4994237;28;20458;-92
2023/07/30 07:35:22;;;;;;;15.15;3.78;;;18.00;99.90;;;;;;5026926;28;20468;-90
2023/07/30 07:37:48;;;;;;;13.52;3.22;;;18.40;99.90;;;;;;5000131;28;20513;-91
2023/07/30 07:40:14;;;;;;;13.77;3.28;;;18.30;99.90;;;;;;4982648;28;20048;-89
2023/07/30 07:42:40;;;;;;;15.85;3.60;;;18.60;99.90;;;;;;4994609;28;20051;-92
2023/07/30 07:45:06;;;;;;;14.77;3.17;;;18.80;99.90;;;;;;5032769;28;20041;-93
2023/07/30 07:47:32;;;;;;;14.35;3.50;;;19.00;99.90;;;;;;4997883;28;20355;-90
2023/07/30 07:49:58;;;;;;;14.65;3.97;;;19.20;99.90;;;;;;4976418;28;20347;-91
2023/07/30 07:52:24;;;;;;;15.18;3.38;;;19.20;99.90;;;;;;5007943;28;20409;-93
2023/07/30 07:54:49;;;;;;;12.55;3.38;;;19.30;99.90;;;;;;5012599;28;20045;-90
2023/07/30 07:57:15;;;;;;;12.52;3.30;;;19.50;99.90;;;;;;4992164;28;20045;-90
2023/07/30 07:59:44;;;;;;;11.25;2.67;;;19.70;99.90;;;;;;4997340;28;20050;-92
2023/07/30 08:02:13;;;;;;;13.45;3.25;;;19.90;99.90;;;;;;5013884;28;20045;-91
2023/07/30 08:04:38;;;;;;;14.32;2.95;;;19.90;99.90;;;;;;4996331;28;20041;-89
2023/07/30 08:07:04;;;;;;;15.57;2.78;;;19.90;99.90;;;;;;4998781;28;20052;-89
2023/07/30 08:09:31;;;;;;;13.45;2.92;;;20.10;99.90;;;;;;4982209;28;20120;-91
2023/07/30 08:11:57;;;;;;;11.73;2.83;;;19.90;99.90;;;;;;5015479;28;20075;-91
2023/07/30 08:14:22;;;;;;;10.88;2.42;;;19.70;99.90;;;;;;5012944;28;20033;-90
2023/07/30 08:16:48;;;;;;;12.57;2.67;;;19.40;99.90;;;;;;4984089;28;20037;-89
2023/07/30 08:19:14;;;;;;;14.98;3.30;;;19.20;99.90;;;;;;4999106;28;20271;-90
2023/07/30 08:21:39;;;;;;;11.75;2.33;;;19.10;99.90;;;;;;4996853;28;20379;-91
2023/07/30 08:24:05;;;;;;;12.23;2.60;;;18.80;99.90;;;;;;5013248;28;20045;-91
2023/07/30 08:26:32;;;;;;;13.55;2.72;;;18.70;99.90;;;;;;4988674;28;20095;-91
2023/07/30 08:28:58;;;;;;;13.10;2.97;;;18.70;99.90;;;;;;4996379;28;20041;-93
2023/07/30 08:31:24;;;;;;;11.05;2.38;;;18.70;99.90;;;;;;4998172;28;20048;-91
2023/07/30 08:33:49;;;;;;;10.10;2.17;;;18.70;99.90;;;;;;5028410;28;20045;-92
2023/07/30 08:36:15;;;;;;;10.68;2.20;;;18.60;99.90;;;;;;5015327;28;20422;-91
2023/07/30 08:38:41;;;;;;;11.13;2.20;;;18.70;99.90;;;;;;5000692;28;20607;-92
2023/07/30 08:41:07;;;;;;;11.07;2.45;;;18.80;99.90;;;;;;4998913;28;20063;-94
2023/07/30 08:43:34;;;;;;;9.82;2.13;;;18.80;99.90;;;;;;4995261;28;20426;-93
2023/07/30 08:46:00;;;;;;;11.65;2.67;;;18.80;99.90;;;;;;5001150;28;20033;-92
2023/07/30 08:48:26;;;;;;;11.00;2.65;;;18.80;99.90;;;;;;5001965;28;20522;-91
2023/07/30 08:50:56;;;;;;;9.00;2.50;;;18.80;99.90;;;;;;4996180;28;20033;-92
2023/07/30 08:53:26;;;;;;;13.90;2.80;;;18.70;99.90;;;;;;5014585;28;20110;-91
2023/07/30 08:55:54;;;;;;;11.23;2.45;;;18.70;99.90;;;;;;4995788;28;20117;-92
2023/07/30 08:58:22;;;;;;;9.55;2.40;;;18.60;99.90;;;;;;5018457;28;20047;-91
2023/07/30 09:00:51;;;;;;;10.05;2.30;;;18.50;99.90;;;;;;5006340;28;20040;-92
2023/07/30 09:03:18;;;;;;;11.73;2.60;;;18.50;99.90;;;;;;5011612;28;20135;-91
2023/07/30 09:05:44;;;;;;;10.60;2.10;;;18.50;99.90;;;;;;4991007;28;20044;-90
2023/07/30 09:08:11;;;;;;;9.95;2.10;;;18.50;99.90;;;;;;4989577;28;20053;-91
2023/07/30 09:10:37;;;;;;;12.38;2.58;;;18.60;99.90;;;;;;5007631;28;20140;-91
2023/07/30 09:13:03;;;;;;;9.98;2.20;;;;;;;;;;4995866;28;20069;-91
2023/07/30 09:15:33;;;;;;;10.60;2.30;;;18.80;99.90;;;;;;5009740;28;20037;-91
2023/07/30 09:18:00;;;;;;;9.88;2.40;;;18.80;99.90;;;;;;5011992;28;20037;-94
2023/07/30 09:20:26;;;;;;;9.98;2.03;;;19.10;99.90;;;;;;5000236;28;20119;-90
2023/07/30 09:22:55;;;;;;;9.65;2.08;;;19.10;99.90;;;;;;5002845;28;20233;-95
2023/07/30 09:25:21;;;;;;;10.20;2.20;;;19.20;99.90;;;;;;5008407;28;20049;-90
2023/07/30 09:27:51;;;;;;;11.07;2.65;;;19.20;99.90;;;;;;5029269;28;20040;-92
2023/07/30 09:30:24;;;;;;;11.73;2.47;;;19.20;99.90;;;;;;5005640;28;20498;-92
2023/07/30 09:32:55;;;;;;;11.10;2.33;;;19.10;99.90;;;;;;4990397;28;20037;-90
2023/07/30 09:35:22;;;;;;;8.35;2.45;;;19.00;99.90;;;;;;5007180;28;20118;-91
2023/07/30 09:37:48;;;;;;;10.73;2.58;;;18.80;99.90;;;;;;5002007;28;20060;-90
2023/07/30 09:40:15;;;;;;;11.13;2.72;;;18.70;99.90;;;;;;4988056;28;20044;-89
2023/07/30 09:42:54;;;;;;;9.50;2.20;;;18.60;99.90;;;;;;5022862;28;20192;-93
2023/07/30 09:45:25;;;;;;;12.48;2.58;;;18.60;99.90;;;;;;5023001;28;20045;-92
2023/07/30 09:48:09;;;;;;;8.57;2.00;;;18.60;99.90;;;;;;5010718;28;20037;-88
2023/07/30 09:50:37;;;;;;;16.40;2.95;;;18.70;99.90;;;;;;5008782;28;20103;-89
2023/07/30 09:53:51;;;;;;;9.85;2.28;;;18.70;99.90;;;;;;5025201;28;20052;-93
2023/07/30 09:56:16;;;;;;;11.23;2.47;;;18.60;99.90;;;;;;5109480;23;20039;-92
2023/07/30 09:58:45;;;;;;;9.90;2.20;;;18.60;99.90;;;;;;5037005;28;20044;-86
2023/07/30 10:04:50;;;;;;;10.63;2.70;;;18.60;99.90;;;;;;4994208;28;20034;-89
2023/07/30 10:07:53;;;;;;;9.82;2.35;;;19.20;99.90;;;;;;5024495;28;20595;-88
2023/07/30 10:10:24;;;;;;;7.78;1.98;;;18.70;99.90;;;;;;5045413;28;20064;-91
2023/07/30 10:35:46;;;;;;;9.73;1.98;;;18.90;99.90;;;;;;4821876;29;20073;-89
2023/07/30 10:38:34;;;;;;;9.00;2.38;;;19.20;99.90;;;;;;4822498;29;20057;-88
2023/07/30 10:44:45;;;;;;;7.75;1.80;;;19.30;99.90;;;;;;4844668;29;20108;-91
2023/07/30 10:47:11;;;;;;;8.75;1.95;;;19.10;99.90;;;;;;4839059;29;20269;-89
2023/07/30 10:49:43;;;;;;;10.40;2.05;;;19.00;99.90;;;;;;4969709;28;20053;-90
2023/07/30 10:52:12;;;;;;;9.68;2.38;;;18.90;99.90;;;;;;5020752;28;20548;-89
2023/07/30 10:54:38;;;;;;;10.10;1.92;;;18.60;99.90;;;;;;5047318;28;20286;-91
2023/07/30 10:57:04;;;;;;;7.72;2.20;;;18.50;99.90;;;;;;5012713;28;20066;-91
2023/07/30 10:59:37;;;;;;;8.15;1.90;;;18.40;99.90;;;;;;5046796;28;20044;-90
2023/07/30 11:02:03;;;;;;;9.20;2.38;;;18.50;99.90;;;;;;5053699;28;20044;-90
2023/07/30 11:04:33;;;;;;;8.88;2.15;;;18.60;99.90;;;;;;5049225;28;20527;-90
2023/07/30 11:06:58;;;;;;;9.93;2.40;;;18.90;99.90;;;;;;5044653;28;20040;-90
2023/07/30 11:09:26;;;;;;;9.52;2.38;;;19.00;99.90;;;;;;5032581;28;20044;-90
2023/07/30 11:11:56;;;;;;;9.43;2.13;;;19.20;99.90;;;;;;5052442;28;20512;-91
2023/07/30 11:14:27;;;;;;;9.30;2.47;;;19.70;99.90;;;;;;5039501;28;20477;-90
2023/07/30 11:16:54;;;;;;;11.98;2.53;;;19.70;99.90;;;;;;5033750;28;20036;-89
2023/07/30 11:19:20;;;;;;;9.10;2.65;;;20.00;99.90;;;;;;5026094;28;20068;-90
2023/07/30 11:21:50;;;;;;;10.80;3.05;;;20.30;99.90;;;;;;5050678;28;20036;-90
2023/07/30 11:24:16;;;;;;;11.45;2.70;;;20.20;99.90;;;;;;5052314;28;20111;-92
2023/07/30 11:26:43;;;;;;;10.93;2.00;;;20.00;99.90;;;;;;5053154;28;20036;-89
2023/07/30 11:29:19;;;;;;;12.32;2.45;;;20.10;99.90;;;;;;5053739;28;20079;-91
2023/07/30 11:31:46;;;;;;;10.55;2.63;;;20.30;99.90;;;;;;5036250;28;20571;-90
2023/07/30 11:34:14;;;;;;;10.93;2.60;;;20.20;99.90;;;;;;5078919;28;20040;-89
2023/07/30 11:36:41;;;;;;;11.23;2.35;;;20.10;99.90;;;;;;5069950;28;20958;-90
2023/07/30 11:39:08;;;;;;;11.60;2.65;;;20.30;99.90;;;;;;5050214;28;20044;-92
2023/07/30 11:41:34;;;;;;;11.93;2.30;;;;;;;;;;5037173;28;20033;-89
2023/07/30 11:44:00;;;;;;;12.27;2.45;;;20.50;99.90;;;;;;5053770;28;20260;-91
2023/07/30 11:46:26;;;;;;;12.52;2.25;;;20.70;99.90;;;;;;5037769;28;20228;-90
2023/07/30 11:48:53;;;;;;;7.53;2.10;;;20.90;99.90;;;;;;5052910;28;20096;-90
2023/07/30 11:51:21;;;;;;;10.88;2.20;;;21.00;99.90;;;;;;5079722;28;20396;-91
2023/07/30 11:53:50;;;;;;;10.25;2.25;;;21.10;99.90;;;;;;5053492;28;20033;-90
2023/07/30 11:56:35;;;;;;;9.48;1.98;;;21.00;99.90;;;;;;5037202;28;20057;-92
2023/07/30 11:59:04;;;;;;;9.77;2.10;;;21.10;99.90;;;;;;5069104;28;20102;-90
2023/07/30 12:01:34;;;;;;;9.80;2.25;;;21.30;99.90;;;;;;5053023;28;20154;-92
2023/07/30 12:04:01;;;;;;;12.85;3.20;;;21.40;99.90;;;;;;5036703;28;20040;-89
2023/07/30 12:06:43;;;;;;;8.43;2.28;;;21.60;99.90;;;;;;5053725;28;20046;-89
2023/07/30 12:09:13;;;;;;;10.90;2.40;;;21.70;99.90;;;;;;5051916;28;20111;-90
2023/07/30 12:11:58;;;;;;;9.05;2.13;;;21.80;99.90;;;;;;5051742;28;20076;-90
2023/07/30 12:14:32;;;;;;;8.98;2.22;;;21.60;99.90;;;;;;5051332;28;20044;-91
2023/07/30 12:16:59;;;;;;;10.32;2.20;;;21.20;99.90;;;;;;5053228;28;20511;-88
2023/07/30 12:19:25;;;;;;;8.73;2.40;;;20.70;99.90;;;;;;5053392;28;20045;-91
2023/07/30 12:21:50;;;;;;;11.57;2.70;;;20.10;99.90;;;;;;5035621;28;20382;-90
2023/07/30 12:24:16;;;;;;;9.70;2.20;;;19.50;99.90;;;;;;5046351;28;20041;-90
2023/07/30 12:26:42;;;;;;;7.82;1.98;;;19.20;99.90;;;;;;5053043;28;20138;-89
2023/07/30 12:29:08;;;;;;;9.98;2.20;;;18.90;99.90;;;;;;5019622;28;20036;-90
2023/07/30 12:31:33;;;;;;;10.40;2.38;;;19.60;99.90;;;;;;5058023;28;20052;-90
2023/07/30 12:33:59;;;;;;;9.25;2.00;;;18.60;99.90;;;;;;4694862;28;10000444;-90
2023/07/30 12:36:25;;;;;;;8.55;1.90;;;18.60;99.90;;;;;;4692928;28;10000223;-90
2023/07/30 12:38:53;;;;;;;8.85;1.98;;;18.70;99.90;;;;;;5040008;28;20044;-89
2023/07/30 12:41:25;;;;;;;9.55;2.10;;;18.80;99.90;;;;;;5064734;28;20504;-90
2023/07/30 12:43:56;;;;;;;10.15;1.90;;;19.00;99.90;;;;;;5041393;28;20052;-91
2023/07/30 12:46:23;;;;;;;7.28;1.95;;;19.30;99.90;;;;;;5027213;28;20123;-89
2023/07/30 12:48:51;;;;;;;7.30;1.88;;;19.50;99.90;;;;;;5028319;28;20053;-89
2023/07/30 12:51:17;;;;;;;7.43;1.88;;;19.90;99.90;;;;;;5046405;28;20247;-90
2023/07/30 12:53:45;;;;;;;9.63;2.00;;;19.90;99.90;;;;;;5017405;28;20048;-92
2023/07/30 12:56:15;;;;;;;8.73;1.90;;;20.00;99.90;;;;;;5027724;28;20049;-91
2023/07/30 12:58:41;;;;;;;7.70;2.00;;;20.10;99.90;;;;;;5031318;28;20044;-90
2023/07/30 13:01:07;;;;;;;9.15;2.17;;;20.30;99.90;;;;;;5033840;28;20044;-91
2023/07/30 13:03:33;;;;;;;9.23;2.10;;;20.40;99.90;;;;;;5046172;28;20040;-90
2023/07/30 13:05:58;;;;;;;11.95;2.30;;;20.60;99.90;;;;;;5046770;28;20252;-90
2023/07/30 13:08:24;;;;;;;10.23;2.20;;;20.70;99.90;;;;;;5015991;28;20035;-91